Time;durP1;ratioP1;P1;durP2;ratioP2;P2;SDS_P1;SDS_P2;PMS_P1;PMS_P2;Temp;Humidity;BMP_temperature;BMP_pressure;BME280_temperature;BME280_humidity;BME280_pressure;Samples;Min_cycle;Max_cycle;Signal;HPM_P1;HPM_P2
2023/07/28 00:02:07;;;;;;;4.15;2.20;;;17.60;99.90;;;;;;5052972;28;20027;-64
2023/07/28 00:04:37;;;;;;;4.40;1.85;;;17.60;99.90;;;;;;5035221;28;20450;-64
2023/07/28 00:07:04;;;;;;;3.47;1.67;;;17.60;99.90;;;;;;5052398;28;20131;-64
2023/07/28 00:09:30;;;;;;;4.78;2.17;;;17.60;99.90;;;;;;5035796;28;20033;-64
2023/07/28 00:12:00;;;;;;;4.43;2.08;;;17.60;99.90;;;;;;5052274;28;20038;-63
2023/07/28 00:14:27;;;;;;;4.72;1.75;;;17.70;99.90;;;;;;5018135;28;20039;-64
2023/07/28 00:16:57;;;;;;;4.28;2.05;;;17.70;99.90;;;;;;5032587;28;20032;-64
2023/07/28 00:19:23;;;;;;;3.13;1.80;;;17.70;99.90;;;;;;5050369;28;20033;-64
2023/07/28 00:21:50;;;;;;;4.72;2.40;;;17.80;99.90;;;;;;5032190;28;20041;-64
2023/07/28 00:24:18;;;;;;;7.60;1.70;;;17.70;99.90;;;;;;5049566;28;20112;-64
2023/07/28 00:26:44;;;;;;;6.13;2.03;;;17.80;99.90;;;;;;5032311;28;20554;-64
2023/07/28 00:29:10;;;;;;;2.95;1.42;;;17.80;99.90;;;;;;5050302;28;20084;-64
2023/07/28 00:31:36;;;;;;;4.22;2.30;;;17.80;99.90;;;;;;5050285;28;20071;-64
2023/07/28 00:34:03;;;;;;;3.30;1.98;;;17.80;99.90;;;;;;5035216;28;20033;-64
2023/07/28 00:36:30;;;;;;;3.45;1.73;;;17.80;99.90;;;;;;5035817;28;20037;-64
2023/07/28 00:38:56;;;;;;;3.72;1.52;;;17.80;99.90;;;;;;5053737;28;20027;-63
2023/07/28 00:41:22;;;;;;;3.35;1.17;;;17.90;99.90;;;;;;5053508;28;20029;-64
2023/07/28 00:43:47;;;;;;;2.97;1.25;;;17.90;99.90;;;;;;5052547;28;20033;-64
2023/07/28 00:46:13;;;;;;;3.10;1.20;;;18.00;99.90;;;;;;5053565;28;20043;-64
2023/07/28 00:48:40;;;;;;;2.47;1.05;;;18.10;99.90;;;;;;5053436;28;20496;-64
2023/07/28 00:51:07;;;;;;;2.83;1.73;;;18.20;99.90;;;;;;5053307;28;20556;-64
2023/07/28 00:53:33;;;;;;;3.03;1.42;;;18.20;99.90;;;;;;5034804;28;20060;-63
2023/07/28 00:56:00;;;;;;;4.05;2.05;;;18.20;99.90;;;;;;5053070;28;20477;-64
2023/07/28 00:58:27;;;;;;;2.60;1.50;;;18.10;99.90;;;;;;5053041;28;20025;-64
2023/07/28 01:00:52;;;;;;;2.80;1.80;;;18.10;99.90;;;;;;5053239;28;20032;-64
2023/07/28 01:03:19;;;;;;;3.83;1.65;;;18.10;99.90;;;;;;5034433;28;20107;-64
2023/07/28 01:06:06;;;;;;;4.13;1.55;;;18.10;99.90;;;;;;5024580;28;20029;-64
2023/07/28 01:08:55;;;;;;;3.70;2.08;;;18.10;99.90;;;;;;5051570;28;20181;-64
2023/07/28 01:11:21;;;;;;;6.80;2.58;;;18.10;99.90;;;;;;5032841;28;20037;-64
2023/07/28 01:13:47;;;;;;;8.40;1.90;;;18.10;99.90;;;;;;5014455;28;20083;-64
2023/07/28 01:16:14;;;;;;;8.77;1.95;;;18.10;99.90;;;;;;5010730;28;20535;-64
2023/07/28 01:18:40;;;;;;;5.95;1.65;;;18.10;99.90;;;;;;5015250;28;20506;-63
2023/07/28 01:21:13;;;;;;;4.35;1.92;;;18.10;99.90;;;;;;4999053;28;20060;-64
2023/07/28 01:24:14;;;;;;;3.15;1.75;;;18.20;99.90;;;;;;5001199;28;20024;-64
2023/07/28 01:26:41;;;;;;;5.15;1.58;;;18.20;99.90;;;;;;5016372;28;20033;-64
2023/07/28 01:29:07;;;;;;;3.55;1.85;;;18.20;99.90;;;;;;5048633;28;20392;-64
2023/07/28 01:31:33;;;;;;;2.83;1.35;;;18.20;99.90;;;;;;5059612;28;20079;-64
2023/07/28 01:33:59;;;;;;;3.95;1.80;;;18.20;99.90;;;;;;5051347;28;20039;-64
2023/07/28 01:36:24;;;;;;;3.10;1.58;;;18.20;99.90;;;;;;5054390;28;20036;-63
2023/07/28 01:38:50;;;;;;;3.45;1.60;;;18.20;99.90;;;;;;5054575;28;20047;-63
2023/07/28 01:41:16;;;;;;;3.33;1.27;;;18.10;99.90;;;;;;5040425;28;20056;-62
2023/07/28 01:43:42;;;;;;;3.65;1.80;;;18.20;99.90;;;;;;5013326;28;20481;-62
2023/07/28 01:46:07;;;;;;;3.13;1.63;;;18.20;99.90;;;;;;5014903;28;20487;-62
2023/07/28 01:48:33;;;;;;;3.55;1.98;;;18.20;99.90;;;;;;5031896;28;20025;-62
2023/07/28 01:50:59;;;;;;;2.80;1.60;;;18.20;99.90;;;;;;5032252;28;20481;-61
2023/07/28 01:53:25;;;;;;;2.75;1.50;;;18.20;99.90;;;;;;5031575;28;20041;-62
2023/07/28 01:55:51;;;;;;;2.78;1.30;;;18.20;99.90;;;;;;5014449;28;20036;-62
2023/07/28 01:58:17;;;;;;;3.17;1.65;;;18.20;99.90;;;;;;5032131;28;20052;-63
2023/07/28 02:00:43;;;;;;;3.03;1.67;;;18.20;99.90;;;;;;5031962;28;20034;-63
2023/07/28 02:03:09;;;;;;;2.70;1.55;;;18.20;99.90;;;;;;5031351;28;20385;-62
2023/07/28 02:05:35;;;;;;;3.38;1.60;;;18.10;99.90;;;;;;5031995;28;20120;-63
2023/07/28 02:08:01;;;;;;;4.47;1.75;;;18.10;99.90;;;;;;5033276;28;20040;-63
2023/07/28 02:10:28;;;;;;;2.92;1.52;;;18.20;99.90;;;;;;5051493;28;20033;-63
2023/07/28 02:12:54;;;;;;;4.10;2.08;;;18.10;99.90;;;;;;5059374;28;20021;-62
2023/07/28 02:15:20;;;;;;;4.80;1.77;;;18.10;99.90;;;;;;5061013;28;20029;-63
2023/07/28 02:17:45;;;;;;;1.73;0.85;;;18.10;99.90;;;;;;5051649;28;20119;-63
2023/07/28 02:20:12;;;;;;;3.55;1.13;;;18.10;99.90;;;;;;5051462;28;20040;-63
2023/07/28 02:22:44;;;;;;;2.08;1.25;;;18.10;99.90;;;;;;5050940;28;20036;-62
2023/07/28 02:25:11;;;;;;;4.72;0.93;;;18.10;99.90;;;;;;5033875;28;20025;-63
2023/07/28 02:27:38;;;;;;;2.08;0.88;;;18.10;99.90;;;;;;5033483;28;20098;-63
2023/07/28 02:30:06;;;;;;;2.05;0.98;;;18.10;99.90;;;;;;5033507;28;20017;-62
2023/07/28 02:32:32;;;;;;;2.28;0.90;;;18.10;99.90;;;;;;5032875;28;20091;-63
2023/07/28 02:34:58;;;;;;;2.33;1.10;;;18.10;99.90;;;;;;5033946;28;20025;-63
2023/07/28 02:37:25;;;;;;;2.45;1.23;;;18.00;99.90;;;;;;5033597;28;20021;-63
2023/07/28 02:39:51;;;;;;;2.30;1.40;;;18.00;99.90;;;;;;5051040;28;20094;-63
2023/07/28 02:42:16;;;;;;;2.47;1.50;;;17.90;99.90;;;;;;5016838;28;20388;-63
2023/07/28 02:44:42;;;;;;;2.25;0.70;;;17.90;99.90;;;;;;5032929;28;20481;-63
2023/07/28 02:47:08;;;;;;;1.88;0.90;;;17.90;99.90;;;;;;5051280;28;20029;-63
2023/07/28 02:49:34;;;;;;;2.17;1.25;;;17.90;99.90;;;;;;5050899;28;20056;-63
2023/07/28 02:52:00;;;;;;;2.95;1.45;;;17.80;99.90;;;;;;5033154;28;20029;-63
2023/07/28 02:54:26;;;;;;;3.13;1.10;;;17.80;99.90;;;;;;5032664;28;20037;-62
2023/07/28 02:56:52;;;;;;;2.00;1.27;;;17.80;99.90;;;;;;5050091;28;20113;-63
2023/07/28 02:59:18;;;;;;;2.85;1.40;;;17.80;99.90;;;;;;5033037;28;20485;-63
2023/07/28 03:01:44;;;;;;;4.68;2.13;;;17.80;99.90;;;;;;5033168;28;20025;-63
2023/07/28 03:04:09;;;;;;;3.63;1.80;;;17.80;99.90;;;;;;5050209;28;20478;-63
2023/07/28 03:06:35;;;;;;;3.58;1.77;;;17.80;99.90;;;;;;5032951;28;20121;-63
2023/07/28 03:09:01;;;;;;;3.10;1.90;;;17.80;99.90;;;;;;5050871;28;20198;-63
2023/07/28 03:11:26;;;;;;;5.28;1.95;;;17.80;99.90;;;;;;5050762;28;20123;-63
2023/07/28 03:13:52;;;;;;;4.00;2.13;;;17.70;99.90;;;;;;5032223;28;20489;-63
2023/07/28 03:16:18;;;;;;;3.63;1.92;;;17.70;99.90;;;;;;5050679;28;20509;-63
2023/07/28 03:18:44;;;;;;;6.18;2.38;;;17.70;99.90;;;;;;5050663;28;20040;-63
2023/07/28 03:21:10;;;;;;;4.47;2.30;;;17.70;99.90;;;;;;5032799;28;20033;-64
2023/07/28 03:23:36;;;;;;;2.90;1.83;;;17.70;99.90;;;;;;5032224;28;20822;-63
2023/07/28 03:26:01;;;;;;;2.45;1.60;;;17.70;99.90;;;;;;5050646;28;20473;-63
2023/07/28 03:28:27;;;;;;;3.88;2.08;;;17.70;99.90;;;;;;5050375;28;20021;-63
2023/07/28 03:30:53;;;;;;;5.25;1.90;;;17.70;99.90;;;;;;5050642;28;20029;-64
2023/07/28 03:33:18;;;;;;;6.15;2.03;;;17.70;99.90;;;;;;5031859;28;20040;-64
2023/07/28 03:35:44;;;;;;;4.82;1.63;;;17.70;99.90;;;;;;5032728;28;20033;-64
2023/07/28 03:38:10;;;;;;;3.10;1.40;;;17.70;99.90;;;;;;5050545;28;20033;-64
2023/07/28 03:40:36;;;;;;;4.60;2.20;;;17.70;99.90;;;;;;5032781;28;20120;-64
2023/07/28 03:43:02;;;;;;;3.75;2.10;;;17.70;99.90;;;;;;5049975;28;20112;-64
2023/07/28 03:45:28;;;;;;;2.80;1.75;;;17.80;99.90;;;;;;5016347;28;20500;-63
2023/07/28 03:47:54;;;;;;;3.10;1.70;;;17.80;99.90;;;;;;5032542;28;20025;-63
2023/07/28 03:50:20;;;;;;;3.13;1.35;;;17.80;99.90;;;;;;5032876;28;20357;-63
2023/07/28 03:52:46;;;;;;;2.50;1.38;;;17.70;99.90;;;;;;5032015;28;20029;-63
2023/07/28 03:55:11;;;;;;;4.75;1.42;;;17.70;99.90;;;;;;5050302;28;20096;-63
2023/07/28 03:57:37;;;;;;;2.88;1.27;;;17.80;99.90;;;;;;5046338;28;20029;-63
2023/07/28 04:00:04;;;;;;;3.38;1.63;;;17.80;99.90;;;;;;5052649;28;20025;-63
2023/07/28 04:02:30;;;;;;;2.90;1.40;;;17.90;99.90;;;;;;5043365;28;20093;-64
2023/07/28 04:04:56;;;;;;;5.78;2.17;;;17.80;99.90;;;;;;5070213;28;20492;-63
2023/07/28 04:07:22;;;;;;;4.95;1.60;;;17.80;99.90;;;;;;5054009;28;20115;-63
2023/07/28 04:09:48;;;;;;;5.35;1.65;;;17.80;99.90;;;;;;5074148;28;20283;-63
2023/07/28 04:12:14;;;;;;;6.68;1.77;;;17.80;99.90;;;;;;5055941;28;20047;-64
2023/07/28 04:14:40;;;;;;;3.97;1.80;;;17.80;99.90;;;;;;5068602;28;20102;-63
2023/07/28 04:17:06;;;;;;;4.47;2.05;;;17.80;99.90;;;;;;5053729;28;20040;-63
2023/07/28 04:19:33;;;;;;;3.90;2.15;;;17.90;99.90;;;;;;5036022;28;20078;-62
2023/07/28 04:22:00;;;;;;;5.13;2.58;;;17.80;99.90;;;;;;5060333;23;20083;-64
2023/07/28 04:24:26;;;;;;;4.10;1.92;;;17.80;99.90;;;;;;5016997;28;20130;-64
2023/07/28 04:26:52;;;;;;;10.35;2.25;;;17.80;99.90;;;;;;5016248;28;20029;-64
2023/07/28 04:29:18;;;;;;;5.90;2.42;;;17.80;99.90;;;;;;5015106;28;20370;-64
2023/07/28 04:31:44;;;;;;;5.80;2.70;;;17.80;99.90;;;;;;5035441;28;20060;-64
2023/07/28 04:34:10;;;;;;;3.03;1.65;;;17.80;99.90;;;;;;5033288;28;20460;-64
2023/07/28 04:36:35;;;;;;;4.75;2.20;;;17.80;99.90;;;;;;5033564;28;20038;-63
2023/07/28 04:39:01;;;;;;;2.88;1.55;;;17.80;99.90;;;;;;5033706;28;20122;-64
2023/07/28 04:41:27;;;;;;;4.90;2.50;;;17.80;99.90;;;;;;5032484;28;20025;-64
2023/07/28 04:43:53;;;;;;;3.33;1.48;;;17.80;99.90;;;;;;5005527;28;20033;-64
2023/07/28 04:46:19;;;;;;;4.25;2.03;;;17.80;99.90;;;;;;5023282;28;20046;-64
2023/07/28 04:48:45;;;;;;;3.25;1.73;;;17.80;99.90;;;;;;5022109;28;20045;-64
2023/07/28 04:51:11;;;;;;;4.18;1.58;;;17.80;99.90;;;;;;5027377;28;20083;-64
2023/07/28 04:53:37;;;;;;;3.55;1.65;;;17.90;99.90;;;;;;5019462;28;20022;-63
2023/07/28 04:56:03;;;;;;;2.58;1.48;;;17.90;99.90;;;;;;5032690;28;20037;-64
2023/07/28 04:58:29;;;;;;;4.57;1.35;;;17.90;99.90;;;;;;5032944;28;20092;-64
2023/07/28 05:00:55;;;;;;;3.58;1.63;;;17.90;99.90;;;;;;5009133;28;20109;-63
2023/07/28 05:03:21;;;;;;;3.30;1.45;;;18.00;99.90;;;;;;5031810;28;20100;-63
2023/07/28 05:05:47;;;;;;;5.97;1.52;;;18.00;99.90;;;;;;5010545;28;20052;-63
2023/07/28 05:08:13;;;;;;;2.83;1.20;;;18.00;99.90;;;;;;5023146;28;20025;-64
2023/07/28 05:10:40;;;;;;;3.33;0.93;;;18.00;99.90;;;;;;5021277;28;20116;-64
2023/07/28 05:13:06;;;;;;;3.35;1.38;;;18.00;99.90;;;;;;5004737;28;20071;-64
2023/07/28 05:15:31;;;;;;;2.90;1.33;;;18.10;99.90;;;;;;5027067;28;20025;-63
2023/07/28 05:17:57;;;;;;;4.82;1.60;;;18.10;99.90;;;;;;5032428;28;20040;-63
2023/07/28 05:20:23;;;;;;;4.13;2.03;;;18.20;99.90;;;;;;5014037;28;20044;-64
2023/07/28 05:22:49;;;;;;;2.15;0.90;;;18.20;99.90;;;;;;5032100;28;20104;-64
2023/07/28 05:25:15;;;;;;;1.77;0.90;;;18.20;99.90;;;;;;5032335;28;20083;-64
2023/07/28 05:27:40;;;;;;;3.00;1.45;;;18.30;99.90;;;;;;5032715;28;20045;-64
2023/07/28 05:30:07;;;;;;;3.58;0.88;;;18.30;99.90;;;;;;5032419;28;20123;-64
2023/07/28 05:32:33;;;;;;;1.88;0.85;;;18.30;99.90;;;;;;5031578;28;20044;-63
2023/07/28 05:34:59;;;;;;;1.40;0.95;;;18.30;99.90;;;;;;5032350;28;20393;-63
2023/07/28 05:37:24;;;;;;;13.88;1.65;;;18.40;99.90;;;;;;5032238;28;20030;-63
2023/07/28 05:39:50;;;;;;;10.45;1.27;;;18.40;99.90;;;;;;5032131;28;20626;-63
2023/07/28 05:42:16;;;;;;;2.97;1.23;;;18.30;99.90;;;;;;5014268;28;20496;-64
2023/07/28 05:44:42;;;;;;;2.30;1.17;;;18.40;99.90;;;;;;5014246;28;20033;-64
2023/07/28 05:47:08;;;;;;;2.50;1.20;;;18.40;99.90;;;;;;5032469;28;20030;-62
2023/07/28 05:49:33;;;;;;;1.17;0.73;;;18.30;99.90;;;;;;5032314;28;20576;-64
2023/07/28 05:51:59;;;;;;;1.38;0.95;;;18.30;99.90;;;;;;5032279;28;20037;-65
2023/07/28 05:54:25;;;;;;;1.52;0.95;;;18.40;99.90;;;;;;5031037;28;20489;-64
2023/07/28 05:56:50;;;;;;;7.97;3.22;;;18.40;99.90;;;;;;5032366;28;20478;-63
2023/07/28 05:59:16;;;;;;;5.55;2.58;;;18.40;99.90;;;;;;5031911;28;20026;-66
2023/07/28 06:01:42;;;;;;;1.15;0.70;;;18.50;99.90;;;;;;5032624;28;20506;-64
2023/07/28 06:04:08;;;;;;;1.83;1.10;;;18.50;99.90;;;;;;5028825;28;21822;-63
2023/07/28 06:06:33;;;;;;;2.17;0.80;;;18.50;99.90;;;;;;5028928;28;20037;-64
2023/07/28 06:08:59;;;;;;;2.28;1.10;;;18.40;99.90;;;;;;5030667;28;20033;-63
2023/07/28 06:11:26;;;;;;;2.22;0.73;;;18.40;99.90;;;;;;5030372;28;20401;-62
2023/07/28 06:13:51;;;;;;;1.35;0.77;;;18.50;99.90;;;;;;5016104;28;20040;-62
2023/07/28 06:16:17;;;;;;;1.83;1.02;;;18.50;99.90;;;;;;5021374;28;20030;-63
2023/07/28 06:18:43;;;;;;;5.28;2.40;;;18.60;99.90;;;;;;5046652;28;20032;-63
2023/07/28 06:21:09;;;;;;;2.70;1.45;;;18.60;99.90;;;;;;5051101;28;20029;-63
2023/07/28 06:23:35;;;;;;;1.88;1.48;;;18.60;99.90;;;;;;5044740;28;20037;-63
2023/07/28 06:26:01;;;;;;;1.52;0.80;;;18.60;99.90;;;;;;5031086;28;20041;-63
2023/07/28 06:28:26;;;;;;;2.45;0.80;;;18.60;99.90;;;;;;5013640;28;20110;-63
2023/07/28 06:30:57;;;;;;;1.38;1.00;;;18.50;99.90;;;;;;5013239;28;20539;-62
2023/07/28 06:33:24;;;;;;;1.10;0.70;;;18.60;99.90;;;;;;5012448;28;20037;-63
2023/07/28 06:35:52;;;;;;;1.55;0.70;;;18.70;99.90;;;;;;5030609;28;20030;-63
2023/07/28 06:38:18;;;;;;;2.00;0.80;;;18.70;99.90;;;;;;5031025;28;20029;-63
2023/07/28 06:40:44;;;;;;;1.73;0.85;;;18.70;99.90;;;;;;5030683;28;20587;-63
2023/07/28 06:43:10;;;;;;;0.68;0.55;;;18.70;99.90;;;;;;5012670;28;20033;-64
2023/07/28 06:45:36;;;;;;;2.20;1.10;;;18.60;99.90;;;;;;5030557;28;20061;-63
2023/07/28 06:48:03;;;;;;;2.35;1.00;;;18.70;99.90;;;;;;5013179;28;20053;-64
2023/07/28 06:50:29;;;;;;;2.97;1.50;;;18.70;99.90;;;;;;5013201;28;20505;-65
2023/07/28 06:52:54;;;;;;;1.35;0.90;;;18.70;99.90;;;;;;5029757;28;20025;-55
2023/07/28 06:55:21;;;;;;;1.50;0.90;;;18.70;99.90;;;;;;5030825;28;20792;-56
2023/07/28 06:57:49;;;;;;;4.45;2.40;;;18.80;99.90;;;;;;5030306;28;20116;-57
2023/07/28 07:00:16;;;;;;;7.47;2.95;;;18.90;99.90;;;;;;5030344;28;20481;-57
2023/07/28 07:02:42;;;;;;;2.08;1.38;;;18.90;99.90;;;;;;5008273;28;20042;-57
2023/07/28 07:05:08;;;;;;;2.63;0.88;;;18.90;99.90;;;;;;5040850;28;20572;-58
2023/07/28 07:07:34;;;;;;;1.60;0.70;;;18.90;99.90;;;;;;5041896;28;20021;-53
2023/07/28 07:09:59;;;;;;;5.47;0.80;;;18.80;99.90;;;;;;5018429;28;20037;-58
2023/07/28 07:12:25;;;;;;;3.42;1.15;;;18.90;99.90;;;;;;5014652;28;20039;-57
2023/07/28 07:14:51;;;;;;;4.68;1.05;;;19.00;99.90;;;;;;5038563;28;20037;-55
2023/07/28 07:17:17;;;;;;;5.68;1.17;;;19.10;99.90;;;;;;5026575;28;20489;-73
2023/07/28 07:19:43;;;;;;;2.72;0.80;;;19.20;99.90;;;;;;5036502;28;20036;-71
2023/07/28 07:22:09;;;;;;;1.95;0.88;;;19.00;99.90;;;;;;5019322;28;20116;-72
2023/07/28 07:24:35;;;;;;;2.33;1.45;;;19.10;99.90;;;;;;5025783;28;20105;-72
2023/07/28 07:27:01;;;;;;;2.33;1.05;;;19.10;99.90;;;;;;5032922;28;20063;-72
2023/07/28 07:29:26;;;;;;;1.40;0.88;;;19.10;99.90;;;;;;5041841;28;20043;-72
2023/07/28 07:31:55;;;;;;;1.20;0.73;;;19.20;99.90;;;;;;5049886;28;20025;-72
2023/07/28 07:34:23;;;;;;;1.65;0.88;;;19.30;99.90;;;;;;5049470;28;20033;-71
2023/07/28 07:36:49;;;;;;;2.00;0.75;;;19.40;99.90;;;;;;5032488;28;20108;-72
2023/07/28 07:39:15;;;;;;;3.13;0.77;;;19.50;99.90;;;;;;5049898;28;20386;-73
2023/07/28 07:41:41;;;;;;;1.00;0.55;;;19.50;99.90;;;;;;5051028;28;20836;-73
2023/07/28 07:44:07;;;;;;;4.60;1.42;;;19.60;99.90;;;;;;5053418;28;20108;-72
2023/07/28 07:46:33;;;;;;;2.05;1.00;;;19.70;99.90;;;;;;5036061;28;20440;-72
2023/07/28 07:48:58;;;;;;;1.35;0.80;;;19.80;99.90;;;;;;5054085;28;20033;-72
2023/07/28 07:51:24;;;;;;;0.88;0.50;;;19.80;99.90;;;;;;5053939;28;20385;-73
2023/07/28 07:53:50;;;;;;;1.48;0.85;;;19.90;99.90;;;;;;5053290;28;20489;-73
2023/07/28 07:56:16;;;;;;;1.30;0.70;;;19.80;99.90;;;;;;5046751;28;20112;-73
2023/07/28 07:58:42;;;;;;;1.00;0.60;;;19.90;99.90;;;;;;5016361;28;20057;-73
2023/07/28 08:01:08;;;;;;;1.05;0.60;;;20.00;99.90;;;;;;5033767;28;20053;-74
2023/07/28 08:03:36;;;;;;;2.03;0.93;;;20.10;99.90;;;;;;5033223;28;20026;-74
2023/07/28 08:06:02;;;;;;;1.45;0.85;;;20.30;99.90;;;;;;5034050;28;20064;-75
2023/07/28 08:08:28;;;;;;;1.25;0.52;;;20.20;99.90;;;;;;5033692;28;20037;-74
2023/07/28 08:10:54;;;;;;;2.20;1.08;;;20.20;99.90;;;;;;5033781;28;20520;-72
2023/07/28 08:13:20;;;;;;;2.90;0.93;;;20.30;99.90;;;;;;5015432;28;20030;-74
2023/07/28 08:15:46;;;;;;;1.98;0.80;;;20.20;99.90;;;;;;5033758;28;20555;-74
2023/07/28 08:18:15;;;;;;;4.38;1.58;;;20.30;99.90;;;;;;5033565;28;20045;-74
2023/07/28 08:20:41;;;;;;;4.93;3.08;;;20.40;99.90;;;;;;5033196;28;20137;-74
2023/07/28 08:23:07;;;;;;;0.70;0.50;;;20.50;99.90;;;;;;5016907;28;20025;-74
2023/07/28 08:25:34;;;;;;;0.75;0.45;;;20.60;99.90;;;;;;5053125;28;20055;-74
2023/07/28 08:28:00;;;;;;;0.68;0.38;;;20.80;99.90;;;;;;5035691;28;20459;-74
2023/07/28 08:30:26;;;;;;;1.92;0.80;;;20.80;99.90;;;;;;5035470;28;20029;-74
2023/07/28 08:32:52;;;;;;;1.98;0.70;;;20.70;99.90;;;;;;5034680;28;20380;-74
2023/07/28 08:35:18;;;;;;;3.10;0.68;;;20.70;99.90;;;;;;5035870;28;20020;-74
2023/07/28 08:37:44;;;;;;;1.10;0.60;;;20.90;99.90;;;;;;5035407;28;20102;-74
2023/07/28 08:40:11;;;;;;;1.13;0.50;;;20.90;99.90;;;;;;5052860;28;20059;-74
2023/07/28 08:42:39;;;;;;;2.15;0.40;;;20.90;99.90;;;;;;5052128;28;20028;-74
2023/07/28 08:45:08;;;;;;;1.20;0.70;;;21.10;99.90;;;;;;5035261;28;20021;-74
2023/07/28 08:47:35;;;;;;;1.38;0.55;;;21.20;99.90;;;;;;5034926;28;20039;-73
2023/07/28 08:50:01;;;;;;;0.82;0.52;;;21.50;99.90;;;;;;5052850;28;20066;-74
2023/07/28 08:52:27;;;;;;;1.75;0.70;;;21.50;99.90;;;;;;5052058;28;20496;-74
2023/07/28 08:54:53;;;;;;;1.23;0.50;;;21.80;99.90;;;;;;5034871;28;20029;-73
2023/07/28 08:57:20;;;;;;;1.10;0.40;;;21.70;99.90;;;;;;5035081;28;20069;-73
2023/07/28 08:59:49;;;;;;;1.00;0.45;;;21.70;99.90;;;;;;5034712;28;20021;-73
2023/07/28 09:02:19;;;;;;;0.63;0.50;;;21.80;99.90;;;;;;5035071;28;20021;-73
2023/07/28 09:04:47;;;;;;;1.15;0.55;;;21.80;99.90;;;;;;5033328;28;20038;-73
2023/07/28 09:07:14;;;;;;;1.23;0.60;;;21.80;99.90;;;;;;5034289;28;20041;-73
2023/07/28 09:09:40;;;;;;;1.10;0.65;;;21.90;99.90;;;;;;5033318;28;20029;-73
2023/07/28 09:12:08;;;;;;;0.50;0.30;;;21.60;99.90;;;;;;5026861;28;20598;-73
2023/07/28 09:14:36;;;;;;;0.43;0.32;;;21.50;99.90;;;;;;5019759;28;20029;-73
2023/07/28 09:17:10;;;;;;;1.38;0.70;;;21.60;99.90;;;;;;5020130;28;20056;-73
2023/07/28 09:19:53;;;;;;;1.05;0.70;;;21.70;99.90;;;;;;5019990;28;20029;-73
2023/07/28 09:22:20;;;;;;;1.35;0.63;;;21.70;99.90;;;;;;5031130;28;20032;-72
2023/07/28 09:24:47;;;;;;;1.05;0.65;;;21.90;99.90;;;;;;5026008;28;20036;-73
2023/07/28 09:27:25;;;;;;;1.35;0.70;;;22.00;99.90;;;;;;5025240;28;20024;-73
2023/07/28 09:29:54;;;;;;;1.50;0.60;;;22.20;99.90;;;;;;5016959;28;20040;-73
2023/07/28 09:32:36;;;;;;;0.95;0.50;;;22.40;99.90;;;;;;5032690;28;20025;-73
2023/07/28 09:35:13;;;;;;;1.08;0.50;;;22.50;99.90;;;;;;5034159;28;20071;-72
2023/07/28 09:37:42;;;;;;;1.30;0.57;;;22.40;99.90;;;;;;5019524;28;20033;-70
2023/07/28 09:40:14;;;;;;;0.77;0.45;;;22.30;99.90;;;;;;5026539;28;20029;-70
2023/07/28 09:42:42;;;;;;;1.40;0.60;;;22.30;99.90;;;;;;5015528;28;20151;-71
2023/07/28 09:45:10;;;;;;;2.42;0.60;;;22.50;99.90;;;;;;5017079;28;20053;-72
2023/07/28 09:47:37;;;;;;;0.85;0.40;;;22.40;99.90;;;;;;5030493;28;20786;-72
2023/07/28 09:50:08;;;;;;;0.77;0.50;;;22.00;99.90;;;;;;5030786;28;20618;-71
2023/07/28 09:52:49;;;;;;;0.68;0.47;;;22.10;99.90;;;;;;5012497;28;20491;-71
2023/07/28 09:55:17;;;;;;;0.65;0.35;;;22.10;99.90;;;;;;5033762;28;20025;-72
2023/07/28 09:57:53;;;;;;;0.77;0.40;;;22.10;99.90;;;;;;5032673;28;20524;-72
2023/07/28 10:00:21;;;;;;;1.17;0.77;;;22.10;99.90;;;;;;5011627;28;20057;-71
2023/07/28 10:02:46;;;;;;;1.48;0.68;;;22.10;99.90;;;;;;5036186;28;20030;-71
2023/07/28 10:05:15;;;;;;;1.25;0.50;;;22.50;99.90;;;;;;5038313;28;20691;-71
2023/07/28 10:07:45;;;;;;;0.45;0.40;;;22.80;99.90;;;;;;5024855;28;20025;-69
2023/07/28 10:10:13;;;;;;;1.40;0.55;;;22.90;99.90;;;;;;5031505;28;20094;-71
2023/07/28 10:12:51;;;;;;;0.98;0.50;;;22.80;99.90;;;;;;5020096;28;20064;-71
2023/07/28 10:15:19;;;;;;;0.80;0.55;;;23.00;99.90;;;;;;5015795;28;20448;-71
2023/07/28 10:17:47;;;;;;;1.77;0.82;;;23.00;99.90;;;;;;5032892;28;20454;-71
2023/07/28 10:20:40;;;;;;;1.20;0.63;;;22.80;99.90;;;;;;4980787;28;1069280;-71
2023/07/28 10:23:13;;;;;;;1.08;0.55;;;22.70;99.90;;;;;;5040455;28;20044;-71
2023/07/28 10:25:40;;;;;;;0.47;0.30;;;22.70;99.90;;;;;;5050956;28;20158;-71
2023/07/28 10:28:40;;;;;;;1.35;0.80;;;22.70;99.90;;;;;;5032953;28;20025;-71
2023/07/28 10:31:11;;;;;;;0.82;0.50;;;22.80;99.90;;;;;;5035213;28;20036;-71
2023/07/28 10:33:48;;;;;;;0.88;0.50;;;22.80;99.90;;;;;;5050160;28;20033;-70
2023/07/28 10:36:34;;;;;;;0.73;0.40;;;23.10;99.90;;;;;;5019895;28;20083;-71
2023/07/28 10:39:03;;;;;;;1.63;0.80;;;23.10;99.90;;;;;;5021181;28;20017;-71
2023/07/28 10:41:30;;;;;;;1.98;0.93;;;23.30;99.90;;;;;;5028854;28;20021;-69
2023/07/28 10:43:56;;;;;;;1.35;0.52;;;23.20;99.90;;;;;;5021194;28;20452;-69
2023/07/28 10:46:22;;;;;;;1.35;0.60;;;22.90;99.90;;;;;;5050906;28;20032;-71
2023/07/28 10:48:50;;;;;;;0.68;0.55;;;22.80;99.90;;;;;;5033033;28;20777;-71
2023/07/28 10:51:24;;;;;;;3.10;1.08;;;22.90;99.90;;;;;;5029330;28;20033;-71
2023/07/28 10:54:02;;;;;;;1.73;0.70;;;22.80;99.90;;;;;;5008198;28;20113;-71
2023/07/28 10:56:28;;;;;;;1.67;0.80;;;22.90;99.90;;;;;;5037367;28;20022;-72
2023/07/28 10:59:02;;;;;;;1.20;0.68;;;22.80;99.90;;;;;;5012189;28;20059;-70
2023/07/28 11:01:35;;;;;;;0.73;0.47;;;22.80;99.90;;;;;;5032275;28;20032;-70
2023/07/28 11:04:13;;;;;;;1.33;0.68;;;22.60;99.90;;;;;;5038949;28;20039;-71
2023/07/28 11:06:45;;;;;;;2.80;1.02;;;22.80;99.90;;;;;;5016271;28;20113;-71
2023/07/28 11:09:14;;;;;;;1.83;1.10;;;22.70;99.90;;;;;;5042423;28;20136;-71
2023/07/28 11:11:41;;;;;;;1.38;0.77;;;22.60;99.90;;;;;;5013369;28;20112;-71
2023/07/28 11:14:09;;;;;;;2.10;1.00;;;22.60;99.90;;;;;;5025803;28;20480;-71
2023/07/28 11:16:41;;;;;;;4.82;1.27;;;22.60;99.90;;;;;;5043490;28;20443;-71
2023/07/28 11:19:13;;;;;;;2.20;1.20;;;22.70;99.90;;;;;;5050397;28;20024;-70
2023/07/28 11:21:41;;;;;;;1.33;0.68;;;22.80;99.90;;;;;;5040782;28;20025;-71
2023/07/28 11:24:19;;;;;;;1.80;1.15;;;22.60;99.90;;;;;;5002979;28;20111;-70
2023/07/28 11:26:46;;;;;;;2.33;1.30;;;22.70;99.90;;;;;;5031686;28;20068;-67
2023/07/28 11:29:12;;;;;;;1.80;0.63;;;22.70;99.90;;;;;;5042365;28;20032;-67
2023/07/28 11:31:38;;;;;;;1.80;1.00;;;22.80;99.90;;;;;;5020703;28;20025;-68
2023/07/28 11:34:14;;;;;;;2.05;1.13;;;22.70;99.90;;;;;;5013284;28;20090;-67
2023/07/28 11:36:41;;;;;;;1.10;0.63;;;22.80;99.90;;;;;;5032090;28;20026;-66
2023/07/28 11:39:07;;;;;;;6.05;1.38;;;22.80;99.90;;;;;;5032483;28;20366;-67
2023/07/28 11:41:34;;;;;;;1.35;0.80;;;22.90;99.90;;;;;;5032307;28;20029;-68
2023/07/28 11:44:01;;;;;;;2.25;1.20;;;22.90;99.90;;;;;;5031486;28;20021;-68
2023/07/28 11:46:41;;;;;;;4.50;0.98;;;22.80;99.90;;;;;;5032172;28;20091;-68
2023/07/28 11:49:22;;;;;;;4.40;1.05;;;22.80;99.90;;;;;;5049835;28;20449;-67
2023/07/28 11:51:50;;;;;;;;;;;22.70;99.90;;;;;;5033240;28;20021;-66
2023/07/28 11:54:21;;;;;;;1.77;1.10;;;22.60;99.90;;;;;;5031649;28;19912;-67
2023/07/28 11:56:49;;;;;;;2.08;0.90;;;22.50;99.90;;;;;;5032586;28;20056;-66
2023/07/28 11:59:17;;;;;;;1.85;0.60;;;22.60;99.90;;;;;;5032431;28;20032;-68
2023/07/28 12:01:56;;;;;;;1.35;0.80;;;22.50;99.90;;;;;;5049635;28;20067;-68
2023/07/28 12:04:32;;;;;;;0.85;0.68;;;22.60;99.90;;;;;;5032057;28;20036;-70
2023/07/28 12:07:06;;;;;;;1.42;0.50;;;22.40;99.90;;;;;;5049485;28;20454;-67
2023/07/28 12:09:52;;;;;;;1.33;0.90;;;22.40;99.90;;;;;;5016670;28;20048;-66
2023/07/28 12:12:23;;;;;;;1.67;0.60;;;22.50;99.90;;;;;;5037107;28;20551;-67
2023/07/28 12:14:53;;;;;;;2.28;0.93;;;22.50;99.90;;;;;;5035916;28;20505;-68
2023/07/28 12:17:25;;;;;;;3.80;0.70;;;22.70;99.90;;;;;;5012810;28;20069;-68
2023/07/28 12:20:14;;;;;;;2.30;0.88;;;22.70;99.90;;;;;;5008614;28;20037;-68
2023/07/28 12:22:41;;;;;;;2.53;0.60;;;22.60;99.90;;;;;;5003065;28;20056;-68
2023/07/28 12:25:08;;;;;;;0.82;0.63;;;22.70;99.90;;;;;;5027889;28;20025;-68
2023/07/28 12:27:34;;;;;;;0.85;0.45;;;22.50;99.90;;;;;;5030044;28;20041;-69
2023/07/28 12:30:03;;;;;;;1.10;0.60;;;22.70;99.90;;;;;;4999165;28;20034;-69
2023/07/28 12:32:28;;;;;;;1.25;0.63;;;22.60;99.90;;;;;;5013637;28;20486;-67
2023/07/28 12:34:54;;;;;;;1.30;0.70;;;22.70;99.90;;;;;;5013151;28;20034;-67
2023/07/28 12:37:20;;;;;;;1.35;0.73;;;22.70;99.90;;;;;;5013180;28;20038;-69
2023/07/28 12:39:48;;;;;;;2.55;0.63;;;22.70;99.90;;;;;;4995873;28;20332;-69
2023/07/28 12:42:14;;;;;;;1.23;0.77;;;22.50;99.90;;;;;;4995878;28;20036;-68
2023/07/28 12:44:42;;;;;;;3.17;1.13;;;22.40;99.90;;;;;;4994916;28;20076;-67
2023/07/28 12:47:08;;;;;;;0.65;0.50;;;22.30;99.90;;;;;;4995350;28;20026;-68
2023/07/28 12:49:34;;;;;;;1.60;0.70;;;22.30;99.90;;;;;;4995850;28;20034;-67
2023/07/28 12:52:04;;;;;;;1.25;0.52;;;22.30;99.90;;;;;;5012838;28;20037;-69